sensor_id;sensor_type;location;lat;lon;timestamp;P1;durP1;ratioP1;P2;durP2;ratioP2
50671;SDS011;46021;55.882;37.654;2023-07-22T00:00:30;5.53;;;2.00;;
50671;SDS011;46021;55.882;37.654;2023-07-22T00:02:57;4.93;;;1.93;;
50671;SDS011;46021;55.882;37.654;2023-07-22T00:05:24;6.97;;;1.90;;
50671;SDS011;46021;55.882;37.654;2023-07-22T00:07:52;4.27;;;1.73;;
50671;SDS011;46021;55.882;37.654;2023-07-22T00:10:19;5.85;;;1.70;;
50671;SDS011;46021;55.882;37.654;2023-07-22T00:12:46;3.45;;;2.00;;
50671;SDS011;46021;55.882;37.654;2023-07-22T00:15:13;6.80;;;2.25;;
50671;SDS011;46021;55.882;37.654;2023-07-22T00:17:41;5.37;;;2.10;;
50671;SDS011;46021;55.882;37.654;2023-07-22T00:20:09;4.85;;;1.50;;
50671;SDS011;46021;55.882;37.654;2023-07-22T00:22:37;9.23;;;2.47;;
50671;SDS011;46021;55.882;37.654;2023-07-22T00:25:07;3.40;;;1.70;;
50671;SDS011;46021;55.882;37.654;2023-07-22T00:27:36;4.30;;;1.83;;
50671;SDS011;46021;55.882;37.654;2023-07-22T00:30:04;5.53;;;1.60;;
50671;SDS011;46021;55.882;37.654;2023-07-22T00:32:33;4.82;;;1.60;;
50671;SDS011;46021;55.882;37.654;2023-07-22T00:35:02;7.22;;;1.88;;
50671;SDS011;46021;55.882;37.654;2023-07-22T00:37:30;3.67;;;1.58;;
50671;SDS011;46021;55.882;37.654;2023-07-22T00:39:57;3.75;;;1.60;;
50671;SDS011;46021;55.882;37.654;2023-07-22T00:42:26;3.72;;;1.92;;
50671;SDS011;46021;55.882;37.654;2023-07-22T00:44:53;4.88;;;1.73;;
50671;SDS011;46021;55.882;37.654;2023-07-22T00:47:20;3.30;;;1.67;;
50671;SDS011;46021;55.882;37.654;2023-07-22T00:49:48;2.47;;;1.30;;
50671;SDS011;46021;55.882;37.654;2023-07-22T00:52:16;3.13;;;1.60;;
50671;SDS011;46021;55.882;37.654;2023-07-22T00:54:43;4.23;;;1.60;;
50671;SDS011;46021;55.882;37.654;2023-07-22T00:57:12;2.50;;;1.20;;
50671;SDS011;46021;55.882;37.654;2023-07-22T00:59:40;6.47;;;1.50;;
50671;SDS011;46021;55.882;37.654;2023-07-22T01:02:07;8.82;;;1.80;;
50671;SDS011;46021;55.882;37.654;2023-07-22T01:07:02;4.35;;;1.45;;
50671;SDS011;46021;55.882;37.654;2023-07-22T01:09:35;10.23;;;1.60;;
50671;SDS011;46021;55.882;37.654;2023-07-22T01:12:03;3.53;;;1.50;;
50671;SDS011;46021;55.882;37.654;2023-07-22T01:14:32;4.30;;;1.10;;
50671;SDS011;46021;55.882;37.654;2023-07-22T01:19:30;3.67;;;1.38;;
50671;SDS011;46021;55.882;37.654;2023-07-22T01:21:57;4.03;;;1.50;;
50671;SDS011;46021;55.882;37.654;2023-07-22T01:24:27;3.90;;;1.30;;
50671;SDS011;46021;55.882;37.654;2023-07-22T01:26:55;3.78;;;1.60;;
50671;SDS011;46021;55.882;37.654;2023-07-22T01:29:22;2.45;;;1.38;;
50671;SDS011;46021;55.882;37.654;2023-07-22T01:31:50;2.00;;;1.20;;
50671;SDS011;46021;55.882;37.654;2023-07-22T01:34:19;2.72;;;1.30;;
50671;SDS011;46021;55.882;37.654;2023-07-22T01:36:46;2.67;;;1.40;;
50671;SDS011;46021;55.882;37.654;2023-07-22T01:39:14;4.63;;;1.60;;
50671;SDS011;46021;55.882;37.654;2023-07-22T01:41:43;2.70;;;1.52;;
50671;SDS011;46021;55.882;37.654;2023-07-22T01:44:11;4.18;;;1.60;;
50671;SDS011;46021;55.882;37.654;2023-07-22T01:46:38;2.60;;;1.40;;
50671;SDS011;46021;55.882;37.654;2023-07-22T01:49:06;1.93;;;1.30;;
50671;SDS011;46021;55.882;37.654;2023-07-22T01:51:35;3.70;;;1.50;;
50671;SDS011;46021;55.882;37.654;2023-07-22T01:54:03;5.93;;;1.65;;
50671;SDS011;46021;55.882;37.654;2023-07-22T01:56:30;2.70;;;1.40;;
50671;SDS011;46021;55.882;37.654;2023-07-22T01:58:59;2.83;;;1.38;;
50671;SDS011;46021;55.882;37.654;2023-07-22T02:01:26;2.70;;;1.50;;
50671;SDS011;46021;55.882;37.654;2023-07-22T02:03:53;3.67;;;1.52;;
50671;SDS011;46021;55.882;37.654;2023-07-22T02:06:21;2.78;;;1.50;;
50671;SDS011;46021;55.882;37.654;2023-07-22T02:08:49;3.72;;;1.52;;
50671;SDS011;46021;55.882;37.654;2023-07-22T02:11:16;6.13;;;1.60;;
50671;SDS011;46021;55.882;37.654;2023-07-22T02:13:44;3.78;;;1.50;;
50671;SDS011;46021;55.882;37.654;2023-07-22T02:18:42;4.65;;;1.35;;
50671;SDS011;46021;55.882;37.654;2023-07-22T02:21:09;3.53;;;1.50;;
50671;SDS011;46021;55.882;37.654;2023-07-22T02:23:36;3.77;;;1.60;;
50671;SDS011;46021;55.882;37.654;2023-07-22T02:26:03;2.85;;;1.60;;
50671;SDS011;46021;55.882;37.654;2023-07-22T02:28:30;3.42;;;2.00;;
50671;SDS011;46021;55.882;37.654;2023-07-22T02:31:00;3.70;;;1.60;;
50671;SDS011;46021;55.882;37.654;2023-07-22T02:33:31;4.22;;;1.48;;
50671;SDS011;46021;55.882;37.654;2023-07-22T02:35:58;3.97;;;1.80;;
50671;SDS011;46021;55.882;37.654;2023-07-22T02:38:26;4.15;;;1.83;;
50671;SDS011;46021;55.882;37.654;2023-07-22T02:40:53;3.97;;;1.85;;
50671;SDS011;46021;55.882;37.654;2023-07-22T02:43:20;6.03;;;1.70;;
50671;SDS011;46021;55.882;37.654;2023-07-22T02:45:47;3.88;;;1.67;;
50671;SDS011;46021;55.882;37.654;2023-07-22T02:48:14;4.50;;;1.40;;
50671;SDS011;46021;55.882;37.654;2023-07-22T02:50:42;3.30;;;1.63;;
50671;SDS011;46021;55.882;37.654;2023-07-22T02:53:09;4.57;;;1.42;;
50671;SDS011;46021;55.882;37.654;2023-07-22T02:55:36;3.03;;;1.40;;
50671;SDS011;46021;55.882;37.654;2023-07-22T02:58:03;2.95;;;1.42;;
50671;SDS011;46021;55.882;37.654;2023-07-22T03:00:31;3.28;;;1.40;;
50671;SDS011;46021;55.882;37.654;2023-07-22T03:02:58;3.42;;;1.75;;
50671;SDS011;46021;55.882;37.654;2023-07-22T03:05:27;2.88;;;1.38;;
50671;SDS011;46021;55.882;37.654;2023-07-22T03:07:57;3.45;;;1.60;;
50671;SDS011;46021;55.882;37.654;2023-07-22T03:10:25;4.95;;;1.50;;
50671;SDS011;46021;55.882;37.654;2023-07-22T03:15:20;2.47;;;1.30;;
50671;SDS011;46021;55.882;37.654;2023-07-22T03:17:48;2.53;;;1.38;;
50671;SDS011;46021;55.882;37.654;2023-07-22T03:20:15;2.42;;;1.30;;
50671;SDS011;46021;55.882;37.654;2023-07-22T03:22:44;2.53;;;1.20;;
50671;SDS011;46021;55.882;37.654;2023-07-22T03:25:14;7.50;;;1.30;;
50671;SDS011;46021;55.882;37.654;2023-07-22T03:27:43;4.22;;;1.20;;
50671;SDS011;46021;55.882;37.654;2023-07-22T03:30:12;2.90;;;1.48;;
50671;SDS011;46021;55.882;37.654;2023-07-22T03:32:41;4.85;;;1.10;;
50671;SDS011;46021;55.882;37.654;2023-07-22T03:35:08;2.88;;;1.40;;
50671;SDS011;46021;55.882;37.654;2023-07-22T03:37:36;2.28;;;1.10;;
50671;SDS011;46021;55.882;37.654;2023-07-22T03:40:03;2.67;;;1.40;;
50671;SDS011;46021;55.882;37.654;2023-07-22T03:42:37;6.90;;;1.30;;
50671;SDS011;46021;55.882;37.654;2023-07-22T03:45:05;3.40;;;1.50;;
50671;SDS011;46021;55.882;37.654;2023-07-22T03:47:34;2.30;;;1.20;;
50671;SDS011;46021;55.882;37.654;2023-07-22T03:50:01;2.17;;;1.17;;
50671;SDS011;46021;55.882;37.654;2023-07-22T03:52:30;2.45;;;1.27;;
50671;SDS011;46021;55.882;37.654;2023-07-22T03:54:57;2.22;;;1.15;;
50671;SDS011;46021;55.882;37.654;2023-07-22T03:57:25;1.85;;;1.15;;
50671;SDS011;46021;55.882;37.654;2023-07-22T03:59:53;2.00;;;1.15;;
50671;SDS011;46021;55.882;37.654;2023-07-22T04:02:21;2.88;;;1.05;;
50671;SDS011;46021;55.882;37.654;2023-07-22T04:07:18;2.17;;;1.40;;
50671;SDS011;46021;55.882;37.654;2023-07-22T04:09:45;2.65;;;1.20;;
50671;SDS011;46021;55.882;37.654;2023-07-22T04:12:12;4.35;;;1.60;;
50671;SDS011;46021;55.882;37.654;2023-07-22T04:14:39;3.38;;;1.40;;
50671;SDS011;46021;55.882;37.654;2023-07-22T04:17:07;2.83;;;1.50;;
50671;SDS011;46021;55.882;37.654;2023-07-22T04:19:35;8.85;;;1.25;;
50671;SDS011;46021;55.882;37.654;2023-07-22T04:22:02;6.50;;;1.75;;
50671;SDS011;46021;55.882;37.654;2023-07-22T04:24:30;2.95;;;1.15;;
50671;SDS011;46021;55.882;37.654;2023-07-22T04:26:58;2.40;;;1.25;;
50671;SDS011;46021;55.882;37.654;2023-07-22T04:29:27;3.05;;;1.40;;
50671;SDS011;46021;55.882;37.654;2023-07-22T04:31:56;2.38;;;1.10;;
50671;SDS011;46021;55.882;37.654;2023-07-22T04:34:25;2.92;;;1.10;;
50671;SDS011;46021;55.882;37.654;2023-07-22T04:36:55;2.15;;;1.20;;
50671;SDS011;46021;55.882;37.654;2023-07-22T04:41:49;6.22;;;1.55;;
50671;SDS011;46021;55.882;37.654;2023-07-22T04:46:43;2.22;;;0.98;;
50671;SDS011;46021;55.882;37.654;2023-07-22T04:51:39;5.93;;;2.03;;
50671;SDS011;46021;55.882;37.654;2023-07-22T04:54:06;1.33;;;0.85;;
50671;SDS011;46021;55.882;37.654;2023-07-22T04:56:33;2.10;;;1.20;;
50671;SDS011;46021;55.882;37.654;2023-07-22T04:59:00;1.98;;;1.20;;
50671;SDS011;46021;55.882;37.654;2023-07-22T05:01:28;4.00;;;1.17;;
50671;SDS011;46021;55.882;37.654;2023-07-22T05:03:55;4.55;;;1.17;;
50671;SDS011;46021;55.882;37.654;2023-07-22T05:06:23;5.30;;;1.20;;
50671;SDS011;46021;55.882;37.654;2023-07-22T05:11:18;4.40;;;1.02;;
50671;SDS011;46021;55.882;37.654;2023-07-22T05:13:45;4.32;;;1.08;;
50671;SDS011;46021;55.882;37.654;2023-07-22T05:16:12;2.38;;;1.00;;
50671;SDS011;46021;55.882;37.654;2023-07-22T05:18:39;2.35;;;0.90;;
50671;SDS011;46021;55.882;37.654;2023-07-22T05:21:06;3.28;;;1.20;;
50671;SDS011;46021;55.882;37.654;2023-07-22T05:23:33;2.47;;;1.00;;
50671;SDS011;46021;55.882;37.654;2023-07-22T05:26:02;1.20;;;0.95;;
50671;SDS011;46021;55.882;37.654;2023-07-22T05:28:29;2.28;;;0.98;;
50671;SDS011;46021;55.882;37.654;2023-07-22T05:30:56;3.75;;;1.25;;
50671;SDS011;46021;55.882;37.654;2023-07-22T05:33:23;2.22;;;1.10;;
50671;SDS011;46021;55.882;37.654;2023-07-22T05:35:50;2.88;;;1.17;;
50671;SDS011;46021;55.882;37.654;2023-07-22T05:38:17;1.92;;;0.90;;
50671;SDS011;46021;55.882;37.654;2023-07-22T05:40:44;1.77;;;1.08;;
50671;SDS011;46021;55.882;37.654;2023-07-22T05:43:12;6.38;;;0.95;;
50671;SDS011;46021;55.882;37.654;2023-07-22T05:45:39;4.10;;;1.20;;
50671;SDS011;46021;55.882;37.654;2023-07-22T05:48:06;1.67;;;0.80;;
50671;SDS011;46021;55.882;37.654;2023-07-22T05:50:33;2.88;;;0.90;;
50671;SDS011;46021;55.882;37.654;2023-07-22T05:53:00;4.10;;;1.20;;
50671;SDS011;46021;55.882;37.654;2023-07-22T05:57:54;1.85;;;1.00;;
50671;SDS011;46021;55.882;37.654;2023-07-22T06:02:49;7.28;;;1.20;;
50671;SDS011;46021;55.882;37.654;2023-07-22T06:07:43;1.73;;;1.00;;
50671;SDS011;46021;55.882;37.654;2023-07-22T06:12:37;3.40;;;1.00;;
50671;SDS011;46021;55.882;37.654;2023-07-22T06:15:04;4.03;;;1.20;;
50671;SDS011;46021;55.882;37.654;2023-07-22T06:17:34;4.75;;;1.08;;
50671;SDS011;46021;55.882;37.654;2023-07-22T06:20:01;3.17;;;1.00;;
50671;SDS011;46021;55.882;37.654;2023-07-22T06:22:30;2.90;;;1.00;;
50671;SDS011;46021;55.882;37.654;2023-07-22T06:24:57;3.63;;;0.93;;
50671;SDS011;46021;55.882;37.654;2023-07-22T06:29:51;6.88;;;1.23;;
50671;SDS011;46021;55.882;37.654;2023-07-22T06:32:18;3.20;;;1.25;;
50671;SDS011;46021;55.882;37.654;2023-07-22T06:34:46;7.40;;;1.30;;
50671;SDS011;46021;55.882;37.654;2023-07-22T06:37:13;7.05;;;1.20;;
50671;SDS011;46021;55.882;37.654;2023-07-22T06:39:41;2.35;;;1.10;;
50671;SDS011;46021;55.882;37.654;2023-07-22T06:42:08;4.18;;;1.10;;
50671;SDS011;46021;55.882;37.654;2023-07-22T06:44:35;4.00;;;1.13;;
50671;SDS011;46021;55.882;37.654;2023-07-22T06:47:02;5.60;;;1.50;;
50671;SDS011;46021;55.882;37.654;2023-07-22T06:49:29;6.90;;;1.50;;
50671;SDS011;46021;55.882;37.654;2023-07-22T06:51:57;6.40;;;1.63;;
50671;SDS011;46021;55.882;37.654;2023-07-22T06:54:24;2.78;;;1.20;;
50671;SDS011;46021;55.882;37.654;2023-07-22T06:56:51;5.32;;;1.40;;
50671;SDS011;46021;55.882;37.654;2023-07-22T06:59:18;2.28;;;0.95;;
50671;SDS011;46021;55.882;37.654;2023-07-22T07:01:45;3.83;;;1.20;;
50671;SDS011;46021;55.882;37.654;2023-07-22T07:04:12;6.90;;;1.20;;
50671;SDS011;46021;55.882;37.654;2023-07-22T07:06:39;4.15;;;1.38;;
50671;SDS011;46021;55.882;37.654;2023-07-22T07:09:08;2.88;;;1.10;;
50671;SDS011;46021;55.882;37.654;2023-07-22T07:11:35;3.97;;;1.40;;
50671;SDS011;46021;55.882;37.654;2023-07-22T07:14:02;2.75;;;1.17;;
50671;SDS011;46021;55.882;37.654;2023-07-22T07:16:30;3.67;;;1.20;;
50671;SDS011;46021;55.882;37.654;2023-07-22T07:18:59;3.88;;;1.15;;
50671;SDS011;46021;55.882;37.654;2023-07-22T07:21:27;7.28;;;1.33;;
50671;SDS011;46021;55.882;37.654;2023-07-22T07:23:54;8.55;;;1.20;;
50671;SDS011;46021;55.882;37.654;2023-07-22T07:26:23;2.28;;;1.02;;
50671;SDS011;46021;55.882;37.654;2023-07-22T07:28:50;4.10;;;1.30;;
50671;SDS011;46021;55.882;37.654;2023-07-22T07:31:18;1.63;;;1.00;;
50671;SDS011;46021;55.882;37.654;2023-07-22T07:33:45;4.93;;;1.02;;
50671;SDS011;46021;55.882;37.654;2023-07-22T07:36:12;3.55;;;1.55;;
50671;SDS011;46021;55.882;37.654;2023-07-22T07:38:40;4.65;;;1.13;;
50671;SDS011;46021;55.882;37.654;2023-07-22T07:41:07;5.30;;;1.20;;
50671;SDS011;46021;55.882;37.654;2023-07-22T07:43:38;4.85;;;1.67;;
50671;SDS011;46021;55.882;37.654;2023-07-22T07:46:12;4.90;;;1.20;;
50671;SDS011;46021;55.882;37.654;2023-07-22T07:48:40;1.67;;;1.00;;
50671;SDS011;46021;55.882;37.654;2023-07-22T07:51:07;2.90;;;1.00;;
50671;SDS011;46021;55.882;37.654;2023-07-22T07:53:34;2.78;;;1.27;;
50671;SDS011;46021;55.882;37.654;2023-07-22T07:56:01;2.20;;;1.40;;
50671;SDS011;46021;55.882;37.654;2023-07-22T07:58:28;1.88;;;1.00;;
50671;SDS011;46021;55.882;37.654;2023-07-22T08:00:56;2.08;;;1.20;;
50671;SDS011;46021;55.882;37.654;2023-07-22T08:03:23;4.43;;;1.08;;
50671;SDS011;46021;55.882;37.654;2023-07-22T08:05:50;1.50;;;1.00;;
50671;SDS011;46021;55.882;37.654;2023-07-22T08:08:17;4.32;;;1.10;;
50671;SDS011;46021;55.882;37.654;2023-07-22T08:10:44;4.10;;;1.25;;
50671;SDS011;46021;55.882;37.654;2023-07-22T08:13:11;2.53;;;1.25;;
50671;SDS011;46021;55.882;37.654;2023-07-22T08:15:38;3.90;;;1.30;;
50671;SDS011;46021;55.882;37.654;2023-07-22T08:18:08;1.65;;;0.95;;
50671;SDS011;46021;55.882;37.654;2023-07-22T08:20:35;1.67;;;0.95;;
50671;SDS011;46021;55.882;37.654;2023-07-22T08:23:02;4.85;;;1.08;;
50671;SDS011;46021;55.882;37.654;2023-07-22T08:25:29;3.80;;;1.02;;
50671;SDS011;46021;55.882;37.654;2023-07-22T08:27:56;5.85;;;1.25;;
50671;SDS011;46021;55.882;37.654;2023-07-22T08:30:23;3.75;;;1.33;;
50671;SDS011;46021;55.882;37.654;2023-07-22T08:32:51;7.25;;;1.10;;
50671;SDS011;46021;55.882;37.654;2023-07-22T08:35:19;2.00;;;1.05;;
50671;SDS011;46021;55.882;37.654;2023-07-22T08:37:47;1.77;;;0.70;;
50671;SDS011;46021;55.882;37.654;2023-07-22T08:40:14;1.98;;;1.23;;
50671;SDS011;46021;55.882;37.654;2023-07-22T08:42:41;1.65;;;1.00;;
50671;SDS011;46021;55.882;37.654;2023-07-22T08:45:09;2.15;;;1.10;;
50671;SDS011;46021;55.882;37.654;2023-07-22T08:47:38;3.10;;;0.90;;
50671;SDS011;46021;55.882;37.654;2023-07-22T08:50:11;4.15;;;1.30;;
50671;SDS011;46021;55.882;37.654;2023-07-22T08:52:42;2.03;;;0.95;;
50671;SDS011;46021;55.882;37.654;2023-07-22T08:55:10;3.63;;;1.08;;
50671;SDS011;46021;55.882;37.654;2023-07-22T08:57:38;5.20;;;1.50;;
50671;SDS011;46021;55.882;37.654;2023-07-22T09:00:06;3.28;;;0.85;;
50671;SDS011;46021;55.882;37.654;2023-07-22T09:02:37;2.92;;;1.05;;
50671;SDS011;46021;55.882;37.654;2023-07-22T09:05:06;3.90;;;1.20;;
50671;SDS011;46021;55.882;37.654;2023-07-22T09:07:34;4.03;;;0.80;;
50671;SDS011;46021;55.882;37.654;2023-07-22T09:10:06;5.75;;;1.00;;
50671;SDS011;46021;55.882;37.654;2023-07-22T09:12:35;1.35;;;0.57;;
50671;SDS011;46021;55.882;37.654;2023-07-22T09:15:06;1.30;;;0.73;;
50671;SDS011;46021;55.882;37.654;2023-07-22T09:17:36;1.90;;;0.93;;
50671;SDS011;46021;55.882;37.654;2023-07-22T09:20:05;2.08;;;0.90;;
50671;SDS011;46021;55.882;37.654;2023-07-22T09:22:33;1.35;;;0.88;;
50671;SDS011;46021;55.882;37.654;2023-07-22T09:27:45;2.40;;;0.90;;
50671;SDS011;46021;55.882;37.654;2023-07-22T09:30:23;4.15;;;0.90;;
50671;SDS011;46021;55.882;37.654;2023-07-22T09:32:51;1.88;;;0.70;;
50671;SDS011;46021;55.882;37.654;2023-07-22T09:35:20;5.45;;;1.05;;
50671;SDS011;46021;55.882;37.654;2023-07-22T09:37:47;3.47;;;0.90;;
50671;SDS011;46021;55.882;37.654;2023-07-22T09:40:17;1.42;;;0.60;;
50671;SDS011;46021;55.882;37.654;2023-07-22T09:42:46;2.78;;;0.68;;
50671;SDS011;46021;55.882;37.654;2023-07-22T09:45:14;2.03;;;0.68;;
50671;SDS011;46021;55.882;37.654;2023-07-22T09:47:41;0.73;;;0.55;;
50671;SDS011;46021;55.882;37.654;2023-07-22T09:50:13;5.80;;;0.70;;
50671;SDS011;46021;55.882;37.654;2023-07-22T09:52:45;4.65;;;0.80;;
50671;SDS011;46021;55.882;37.654;2023-07-22T09:55:14;5.25;;;0.80;;
50671;SDS011;46021;55.882;37.654;2023-07-22T09:57:45;2.75;;;0.60;;
50671;SDS011;46021;55.882;37.654;2023-07-22T10:00:14;2.58;;;0.60;;
50671;SDS011;46021;55.882;37.654;2023-07-22T10:02:43;1.48;;;0.47;;
50671;SDS011;46021;55.882;37.654;2023-07-22T10:05:12;3.33;;;0.60;;
50671;SDS011;46021;55.882;37.654;2023-07-22T10:07:43;7.88;;;1.60;;
50671;SDS011;46021;55.882;37.654;2023-07-22T10:10:12;2.90;;;0.93;;
50671;SDS011;46021;55.882;37.654;2023-07-22T10:12:42;0.75;;;0.52;;
50671;SDS011;46021;55.882;37.654;2023-07-22T10:15:10;4.57;;;0.82;;
50671;SDS011;46021;55.882;37.654;2023-07-22T10:17:39;1.23;;;0.80;;
50671;SDS011;46021;55.882;37.654;2023-07-22T10:20:07;1.38;;;0.85;;
50671;SDS011;46021;55.882;37.654;2023-07-22T10:22:36;2.92;;;0.73;;
50671;SDS011;46021;55.882;37.654;2023-07-22T10:25:04;3.05;;;0.70;;
50671;SDS011;46021;55.882;37.654;2023-07-22T10:27:33;3.88;;;0.75;;
50671;SDS011;46021;55.882;37.654;2023-07-22T10:30:03;3.72;;;0.80;;
50671;SDS011;46021;55.882;37.654;2023-07-22T10:32:31;3.85;;;0.98;;
50671;SDS011;46021;55.882;37.654;2023-07-22T10:34:59;1.67;;;0.65;;
50671;SDS011;46021;55.882;37.654;2023-07-22T10:37:30;1.30;;;0.63;;
50671;SDS011;46021;55.882;37.654;2023-07-22T10:39:59;1.83;;;0.70;;
50671;SDS011;46021;55.882;37.654;2023-07-22T10:42:31;3.85;;;0.80;;
50671;SDS011;46021;55.882;37.654;2023-07-22T10:44:59;1.20;;;0.57;;
50671;SDS011;46021;55.882;37.654;2023-07-22T10:47:33;1.33;;;0.68;;
50671;SDS011;46021;55.882;37.654;2023-07-22T10:50:05;0.88;;;0.57;;
50671;SDS011;46021;55.882;37.654;2023-07-22T10:52:37;0.93;;;0.60;;
50671;SDS011;46021;55.882;37.654;2023-07-22T10:55:13;1.30;;;0.70;;
50671;SDS011;46021;55.882;37.654;2023-07-22T10:57:47;1.13;;;0.70;;
50671;SDS011;46021;55.882;37.654;2023-07-22T11:00:17;2.33;;;0.70;;
50671;SDS011;46021;55.882;37.654;2023-07-22T11:02:48;0.60;;;0.50;;
50671;SDS011;46021;55.882;37.654;2023-07-22T11:11:04;1.08;;;0.55;;
50671;SDS011;46021;55.882;37.654;2023-07-22T11:13:34;1.13;;;0.63;;
50671;SDS011;46021;55.882;37.654;2023-07-22T11:16:04;0.73;;;0.50;;
50671;SDS011;46021;55.882;37.654;2023-07-22T11:18:38;1.88;;;0.73;;
50671;SDS011;46021;55.882;37.654;2023-07-22T11:21:09;1.15;;;0.65;;
50671;SDS011;46021;55.882;37.654;2023-07-22T11:23:37;3.10;;;0.80;;
50671;SDS011;46021;55.882;37.654;2023-07-22T11:26:04;1.75;;;0.68;;
50671;SDS011;46021;55.882;37.654;2023-07-22T11:28:31;2.30;;;0.60;;
50671;SDS011;46021;55.882;37.654;2023-07-22T11:30:58;6.88;;;0.80;;
50671;SDS011;46021;55.882;37.654;2023-07-22T11:33:26;9.15;;;0.73;;
50671;SDS011;46021;55.882;37.654;2023-07-22T11:36:05;4.25;;;0.70;;
50671;SDS011;46021;55.882;37.654;2023-07-22T11:40:59;0.93;;;0.60;;
50671;SDS011;46021;55.882;37.654;2023-07-22T11:43:27;1.63;;;0.70;;
50671;SDS011;46021;55.882;37.654;2023-07-22T11:45:54;0.95;;;0.57;;
50671;SDS011;46021;55.882;37.654;2023-07-22T11:48:21;1.50;;;0.50;;
50671;SDS011;46021;55.882;37.654;2023-07-22T11:53:16;4.20;;;0.75;;
50671;SDS011;46021;55.882;37.654;2023-07-22T11:58:10;2.03;;;0.80;;
50671;SDS011;46021;55.882;37.654;2023-07-22T12:00:38;2.40;;;0.52;;
50671;SDS011;46021;55.882;37.654;2023-07-22T12:03:09;4.43;;;0.85;;
50671;SDS011;46021;55.882;37.654;2023-07-22T12:05:36;1.23;;;0.70;;
50671;SDS011;46021;55.882;37.654;2023-07-22T12:08:05;3.35;;;0.95;;
50671;SDS011;46021;55.882;37.654;2023-07-22T12:10:32;3.35;;;1.35;;
50671;SDS011;46021;55.882;37.654;2023-07-22T12:13:00;2.70;;;1.60;;
50671;SDS011;46021;55.882;37.654;2023-07-22T12:15:27;8.50;;;2.53;;
50671;SDS011;46021;55.882;37.654;2023-07-22T12:20:23;1.70;;;0.73;;
50671;SDS011;46021;55.882;37.654;2023-07-22T12:22:51;1.95;;;0.98;;
50671;SDS011;46021;55.882;37.654;2023-07-22T12:25:20;1.70;;;0.88;;
50671;SDS011;46021;55.882;37.654;2023-07-22T12:27:47;2.25;;;0.88;;
50671;SDS011;46021;55.882;37.654;2023-07-22T12:30:14;15.45;;;1.75;;
50671;SDS011;46021;55.882;37.654;2023-07-22T12:35:08;6.07;;;1.20;;
50671;SDS011;46021;55.882;37.654;2023-07-22T12:37:35;3.40;;;0.95;;
50671;SDS011;46021;55.882;37.654;2023-07-22T12:40:03;7.10;;;1.08;;
50671;SDS011;46021;55.882;37.654;2023-07-22T12:42:35;8.63;;;1.10;;
50671;SDS011;46021;55.882;37.654;2023-07-22T12:45:02;6.13;;;1.08;;
50671;SDS011;46021;55.882;37.654;2023-07-22T12:47:32;3.20;;;1.10;;
50671;SDS011;46021;55.882;37.654;2023-07-22T12:49:59;4.55;;;1.25;;
50671;SDS011;46021;55.882;37.654;2023-07-22T12:52:26;2.17;;;1.10;;
50671;SDS011;46021;55.882;37.654;2023-07-22T12:54:53;6.40;;;1.70;;
50671;SDS011;46021;55.882;37.654;2023-07-22T12:57:20;3.63;;;1.23;;
50671;SDS011;46021;55.882;37.654;2023-07-22T12:59:49;6.40;;;1.17;;
50671;SDS011;46021;55.882;37.654;2023-07-22T13:02:16;2.55;;;1.10;;
50671;SDS011;46021;55.882;37.654;2023-07-22T13:04:44;7.45;;;1.40;;
50671;SDS011;46021;55.882;37.654;2023-07-22T13:07:11;4.03;;;0.93;;
50671;SDS011;46021;55.882;37.654;2023-07-22T13:09:38;3.05;;;1.17;;
50671;SDS011;46021;55.882;37.654;2023-07-22T13:12:05;4.13;;;1.20;;
50671;SDS011;46021;55.882;37.654;2023-07-22T13:14:33;3.63;;;1.50;;
50671;SDS011;46021;55.882;37.654;2023-07-22T13:17:02;2.63;;;1.00;;
50671;SDS011;46021;55.882;37.654;2023-07-22T13:19:29;4.60;;;1.10;;
50671;SDS011;46021;55.882;37.654;2023-07-22T13:21:56;4.97;;;1.52;;
50671;SDS011;46021;55.882;37.654;2023-07-22T13:24:23;2.42;;;1.08;;
50671;SDS011;46021;55.882;37.654;2023-07-22T13:29:18;6.78;;;1.10;;
50671;SDS011;46021;55.882;37.654;2023-07-22T13:31:45;8.80;;;1.50;;
50671;SDS011;46021;55.882;37.654;2023-07-22T13:34:14;1.75;;;1.05;;
50671;SDS011;46021;55.882;37.654;2023-07-22T13:36:42;4.57;;;1.20;;
50671;SDS011;46021;55.882;37.654;2023-07-22T13:39:09;3.15;;;1.33;;
50671;SDS011;46021;55.882;37.654;2023-07-22T13:41:36;1.55;;;1.00;;
50671;SDS011;46021;55.882;37.654;2023-07-22T13:44:03;3.45;;;1.27;;
50671;SDS011;46021;55.882;37.654;2023-07-22T13:48:57;5.18;;;1.50;;
50671;SDS011;46021;55.882;37.654;2023-07-22T13:51:26;8.52;;;1.20;;
50671;SDS011;46021;55.882;37.654;2023-07-22T13:53:53;4.35;;;1.63;;
50671;SDS011;46021;55.882;37.654;2023-07-22T13:56:20;2.45;;;1.10;;
50671;SDS011;46021;55.882;37.654;2023-07-22T13:58:47;2.25;;;1.00;;
50671;SDS011;46021;55.882;37.654;2023-07-22T14:01:14;1.60;;;1.05;;
50671;SDS011;46021;55.882;37.654;2023-07-22T14:03:41;3.92;;;1.33;;
50671;SDS011;46021;55.882;37.654;2023-07-22T14:06:08;7.70;;;1.35;;
50671;SDS011;46021;55.882;37.654;2023-07-22T14:08:36;4.55;;;1.08;;
50671;SDS011;46021;55.882;37.654;2023-07-22T14:11:04;4.75;;;0.90;;
50671;SDS011;46021;55.882;37.654;2023-07-22T14:13:31;2.83;;;1.10;;
50671;SDS011;46021;55.882;37.654;2023-07-22T14:15:58;1.65;;;0.90;;
50671;SDS011;46021;55.882;37.654;2023-07-22T14:18:25;5.70;;;1.27;;
50671;SDS011;46021;55.882;37.654;2023-07-22T14:20:52;7.20;;;1.08;;
50671;SDS011;46021;55.882;37.654;2023-07-22T14:23:19;8.90;;;1.13;;
50671;SDS011;46021;55.882;37.654;2023-07-22T14:25:47;3.75;;;1.40;;
50671;SDS011;46021;55.882;37.654;2023-07-22T14:28:14;5.78;;;0.95;;
50671;SDS011;46021;55.882;37.654;2023-07-22T14:30:42;2.90;;;0.85;;
50671;SDS011;46021;55.882;37.654;2023-07-22T14:33:09;2.60;;;1.33;;
50671;SDS011;46021;55.882;37.654;2023-07-22T14:35:36;2.05;;;1.20;;
50671;SDS011;46021;55.882;37.654;2023-07-22T14:38:03;3.70;;;0.90;;
50671;SDS011;46021;55.882;37.654;2023-07-22T14:40:30;2.72;;;1.30;;
50671;SDS011;46021;55.882;37.654;2023-07-22T14:42:58;4.78;;;1.88;;
50671;SDS011;46021;55.882;37.654;2023-07-22T14:45:25;2.42;;;1.10;;
50671;SDS011;46021;55.882;37.654;2023-07-22T14:47:52;2.40;;;1.27;;
50671;SDS011;46021;55.882;37.654;2023-07-22T14:50:19;2.80;;;1.23;;
50671;SDS011;46021;55.882;37.654;2023-07-22T14:52:47;4.35;;;1.45;;
50671;SDS011;46021;55.882;37.654;2023-07-22T14:55:14;2.92;;;1.30;;
50671;SDS011;46021;55.882;37.654;2023-07-22T14:57:41;2.25;;;1.17;;
50671;SDS011;46021;55.882;37.654;2023-07-22T15:00:09;2.75;;;1.15;;
50671;SDS011;46021;55.882;37.654;2023-07-22T15:02:37;2.75;;;1.10;;
50671;SDS011;46021;55.882;37.654;2023-07-22T15:05:04;5.65;;;1.05;;
50671;SDS011;46021;55.882;37.654;2023-07-22T15:09:59;4.53;;;1.10;;
50671;SDS011;46021;55.882;37.654;2023-07-22T15:12:26;4.90;;;1.10;;
50671;SDS011;46021;55.882;37.654;2023-07-22T15:14:53;5.82;;;1.67;;
50671;SDS011;46021;55.882;37.654;2023-07-22T15:17:21;2.65;;;1.40;;
50671;SDS011;46021;55.882;37.654;2023-07-22T15:19:48;4.15;;;1.52;;
50671;SDS011;46021;55.882;37.654;2023-07-22T15:22:15;3.83;;;1.42;;
50671;SDS011;46021;55.882;37.654;2023-07-22T15:24:42;6.57;;;2.00;;
50671;SDS011;46021;55.882;37.654;2023-07-22T15:27:09;2.85;;;1.30;;
50671;SDS011;46021;55.882;37.654;2023-07-22T15:29:36;2.10;;;1.30;;
50671;SDS011;46021;55.882;37.654;2023-07-22T15:32:03;3.78;;;1.40;;
50671;SDS011;46021;55.882;37.654;2023-07-22T15:34:33;4.65;;;1.58;;
50671;SDS011;46021;55.882;37.654;2023-07-22T15:37:00;6.72;;;1.63;;
50671;SDS011;46021;55.882;37.654;2023-07-22T15:39:27;5.13;;;1.10;;